»·PEaware :: N196EC KCRQ-KSBA

N196EC :: KCRQ-KSBA

FLIGHT INFORMATION

Flight Status: Arrived
Operator: Privately registered:
United States
More flights under this callsign
Pilot: Adrián R. (20842)
Aircraft: AERMACCHI WARRIOR
(F260)
More flights by this aircraft type
Origin: KCRQ McClellan-Palomar
United States
Destination: KSBA Santa Barbara Mun
United States
More flights between these airports :: More routes between these airports
Route: OCN V23 LAX V299 VTU VTU282R KWANG
File this flight plan on PilotEdge
Remarks: TEC ROUTE SANP35
Altitude:
(Current/Filed)
6,000ft
Speed:
(Current/Filed)
155kts
Departed: 30-Nov-18 10:40 AM
Arrived: 30-Nov-18 11:48 AM
Distance/Time
Traveled:
149nm/1:08
Distance/Time
To Go:
Arrived

Flight Plot

Page will automatically refresh every two minutes.


Map Options




Map Legend


Flown Route
Filed Route
Departure Airport
Arrival Airport
Navaid (VOR, NDB)
Fix

Horizontal Profiles

Position Reports

Time Latitude Longitude Heading Altitude Ground
Speed
30-Nov-18 10:23 33.127088 -117.274633 334 303ft 0kts
30-Nov-18 10:24 33.127088 -117.274633 334 303ft 0kts
30-Nov-18 10:25 33.127088 -117.274633 334 303ft 0kts
30-Nov-18 10:26 33.127088 -117.274633 334 303ft 0kts
30-Nov-18 10:27 33.127088 -117.274633 334 303ft 0kts
30-Nov-18 10:28 33.127088 -117.274633 334 303ft 0kts
30-Nov-18 10:29 33.127088 -117.274633 334 303ft 0kts
30-Nov-18 10:30 33.127088 -117.274633 334 303ft 0kts
30-Nov-18 10:31 33.127088 -117.274633 334 303ft 0kts
30-Nov-18 10:32 33.127088 -117.274633 334 303ft 0kts
30-Nov-18 10:33 33.127088 -117.274633 334 303ft 0kts
30-Nov-18 10:34 33.127088 -117.274633 334 303ft 0kts
30-Nov-18 10:35 33.127088 -117.274633 334 303ft 0kts
30-Nov-18 10:36 33.127088 -117.274633 334 303ft 0kts
30-Nov-18 10:37 33.127088 -117.274633 334 303ft 0kts
30-Nov-18 10:38 33.127196 -117.274680 343 303ft 4kts
30-Nov-18 10:39 33.128520 -117.272447 81 303ft 16kts
30-Nov-18 10:40 33.128705 -117.272182 295 303ft 0kts
30-Nov-18 10:41 33.128705 -117.272182 296 303ft 0kts
30-Nov-18 10:42 33.129257 -117.272315 353 303ft 10kts
30-Nov-18 10:43 33.126292 -117.292592 259 767ft 102kts
30-Nov-18 10:44 33.121412 -117.330495 261 1959ft 122kts
30-Nov-18 10:45 33.126633 -117.362174 307 3291ft 93kts
30-Nov-18 10:46 33.146367 -117.387244 310 4249ft 111kts
30-Nov-18 10:47 33.167381 -117.414809 310 5121ft 113kts
30-Nov-18 10:48 33.197481 -117.419785 357 5905ft 115kts
30-Nov-18 10:49 33.233018 -117.417703 358 5994ft 134kts
30-Nov-18 10:50 33.261941 -117.436838 290 5996ft 144kts
30-Nov-18 10:51 33.287926 -117.472199 317 5991ft 144kts
30-Nov-18 10:52 33.316865 -117.505467 316 5990ft 144kts
30-Nov-18 10:53 33.345691 -117.538775 316 5990ft 144kts
30-Nov-18 10:54 33.374381 -117.571967 315 5989ft 143kts
30-Nov-18 10:55 33.402852 -117.604956 315 5989ft 142kts
30-Nov-18 10:56 33.431313 -117.637924 316 5988ft 142kts
30-Nov-18 10:57 33.456142 -117.667080 315 5988ft 143kts
30-Nov-18 10:58 33.484063 -117.699742 316 5986ft 145kts
30-Nov-18 10:59 33.511700 -117.731889 317 5984ft 146kts
30-Nov-18 11:00 33.540938 -117.765929 317 5983ft 147kts
30-Nov-18 11:01 33.570297 -117.800241 316 5982ft 148kts
30-Nov-18 11:02 33.598934 -117.834481 316 5981ft 148kts
30-Nov-18 11:03 33.627713 -117.868831 316 5981ft 148kts
30-Nov-18 11:04 33.656923 -117.903716 316 5981ft 148kts
30-Nov-18 11:05 33.686015 -117.938492 316 5981ft 148kts
30-Nov-18 11:06 33.715264 -117.973491 316 5981ft 148kts
30-Nov-18 11:07 33.744383 -118.008536 316 5980ft 148kts
30-Nov-18 11:08 33.773195 -118.044019 316 5980ft 148kts
30-Nov-18 11:09 33.791251 -118.087718 291 5981ft 152kts
30-Nov-18 11:10 33.803541 -118.135155 290 5982ft 152kts
30-Nov-18 11:11 33.815930 -118.183678 290 5984ft 152kts
30-Nov-18 11:12 33.828269 -118.232246 290 5985ft 152kts
30-Nov-18 11:13 33.840612 -118.280939 290 5987ft 152kts
30-Nov-18 11:14 33.852363 -118.329641 288 5989ft 152kts
30-Nov-18 11:15 33.875431 -118.369382 320 5989ft 147kts
30-Nov-18 11:16 33.905707 -118.402791 319 5989ft 148kts
30-Nov-18 11:17 33.935150 -118.437809 303 5983ft 152kts
30-Nov-18 11:18 33.950203 -118.486258 296 5988ft 155kts
30-Nov-18 11:19 33.966201 -118.535832 287 6000ft 157kts
30-Nov-18 11:20 33.981767 -118.584813 285 6000ft 156kts
30-Nov-18 11:21 33.997371 -118.634312 295 6001ft 162kts
30-Nov-18 11:22 34.013007 -118.684024 295 5998ft 166kts
30-Nov-18 11:23 34.029074 -118.735620 295 5997ft 163kts
30-Nov-18 11:24 34.043562 -118.786879 293 5997ft 159kts
30-Nov-18 11:25 34.057078 -118.836633 293 5997ft 154kts
30-Nov-18 11:26 34.070274 -118.885181 293 5997ft 151kts
30-Nov-18 11:27 34.083260 -118.933014 293 5997ft 149kts
30-Nov-18 11:28 34.096137 -118.980519 293 5987ft 149kts
30-Nov-18 11:29 34.107811 -119.023424 292 5991ft 149kts
30-Nov-18 11:30 34.123106 -119.068662 301 5989ft 147kts
30-Nov-18 11:31 34.141699 -119.112572 300 5987ft 146kts
30-Nov-18 11:32 34.160124 -119.156191 300 5985ft 145kts
30-Nov-18 11:33 34.178380 -119.199481 299 5983ft 145kts
30-Nov-18 11:34 34.196549 -119.242622 299 5982ft 144kts
30-Nov-18 11:35 34.214662 -119.285690 298 5981ft 143kts
30-Nov-18 11:36 34.232745 -119.328774 298 5877ft 149kts
30-Nov-18 11:37 34.252257 -119.375100 298 5335ft 153kts
30-Nov-18 11:38 34.271320 -119.420293 298 4623ft 149kts
30-Nov-18 11:39 34.288444 -119.465541 296 4070ft 142kts
30-Nov-18 11:40 34.304191 -119.506220 296 3986ft 127kts
30-Nov-18 11:41 34.319909 -119.546439 298 3763ft 137kts
30-Nov-18 11:42 34.336349 -119.588216 297 2985ft 133kts
30-Nov-18 11:43 34.351438 -119.626947 297 2361ft 123kts
30-Nov-18 11:44 34.364511 -119.660817 297 2100ft 107kts
30-Nov-18 11:45 34.377849 -119.695191 297 2104ft 119kts
30-Nov-18 11:46 34.392436 -119.732561 297 1736ft 125kts
30-Nov-18 11:47 34.406276 -119.768049 300 1022ft 106kts
30-Nov-18 11:48 34.415050 -119.791400 294 996ft 71kts
30-Nov-18 11:49 34.424351 -119.813868 300 516ft 80kts
30-Nov-18 11:50 34.427830 -119.838745 275 22ft 62kts
30-Nov-18 11:51 34.426926 -119.846284 180 16ft 0kts
30-Nov-18 11:52 34.426566 -119.845611 90 16ft 10kts
30-Nov-18 11:53 34.426701 -119.839923 88 16ft 20kts
30-Nov-18 11:54 34.423957 -119.837510 166 16ft 14kts
30-Nov-18 11:55 34.423163 -119.836331 341 16ft 2kts
30-Nov-18 11:56 34.423190 -119.836270 164 16ft 0kts
30-Nov-18 11:57 34.423190 -119.836270 164 16ft 0kts
30-Nov-18 11:58 34.423190 -119.836270 164 16ft 0kts

Navigation Log

Ident Type
Flight plan parsing failed, navigation log unavailable